Time;durP1;ratioP1;P1;durP2;ratioP2;P2;SDS_P1;SDS_P2;PMS_P1;PMS_P2;Temp;Humidity;BMP_temperature;BMP_pressure;BME280_temperature;BME280_humidity;BME280_pressure;Samples;Min_cycle;Max_cycle;Signal;HPM_P1;HPM_P2
2023/04/21 04:00:52;;;;;;;2.70;2.50;;;6.40;99.90;;;;;;5796610;23;20334;-71
2023/04/21 04:03:19;;;;;;;5.57;2.55;;;6.40;99.90;;;;;;4991555;28;20203;-71
2023/04/21 04:05:46;;;;;;;4.88;4.53;;;6.40;99.90;;;;;;4994214;28;20208;-71
2023/04/21 04:08:12;;;;;;;4.25;3.72;;;6.40;99.90;;;;;;4993853;28;20706;-72
2023/04/21 04:10:39;;;;;;;4.75;4.55;;;6.40;99.90;;;;;;4994231;28;20238;-72
2023/04/21 04:13:06;;;;;;;5.18;4.88;;;6.40;99.90;;;;;;4993480;28;20652;-71
2023/04/21 04:15:33;;;;;;;4.32;3.58;;;6.40;99.90;;;;;;5026681;23;20583;-70
2023/04/21 04:18:01;;;;;;;4.45;4.05;;;6.40;99.90;;;;;;5012726;28;20203;-71
2023/04/21 04:20:27;;;;;;;9.18;2.90;;;6.40;99.90;;;;;;5013102;28;20317;-71
2023/04/21 04:22:54;;;;;;;12.50;4.03;;;6.40;99.90;;;;;;5013349;28;20203;-70
2023/04/21 04:25:21;;;;;;;4.60;2.83;;;6.40;99.90;;;;;;5012391;28;20314;-70
2023/04/21 04:27:49;;;;;;;13.57;3.92;;;6.50;99.90;;;;;;5012410;28;20334;-71
2023/04/21 04:30:16;;;;;;;2.83;2.63;;;6.40;99.90;;;;;;5013368;28;20210;-69
2023/04/21 04:32:42;;;;;;;4.82;4.43;;;6.50;99.90;;;;;;5012408;28;20223;-70
2023/04/21 04:35:11;;;;;;;2.42;2.38;;;6.50;99.90;;;;;;5008069;28;20252;-71
2023/04/21 04:37:40;;;;;;;4.80;4.40;;;6.50;99.90;;;;;;5012846;28;20207;-69
2023/04/21 04:40:10;;;;;;;3.42;3.17;;;6.50;99.90;;;;;;5012951;28;20257;-70
2023/04/21 04:42:38;;;;;;;4.07;3.88;;;6.60;99.90;;;;;;5012442;28;20262;-70
2023/04/21 04:45:07;;;;;;;8.95;3.47;;;6.60;99.90;;;;;;5012484;28;20310;-69
2023/04/21 04:47:33;;;;;;;4.30;3.90;;;6.70;99.90;;;;;;5012564;28;20554;-70
2023/04/21 04:50:00;;;;;;;6.80;6.18;;;6.90;99.90;;;;;;5013083;28;20207;-71
2023/04/21 04:52:28;;;;;;;4.47;3.75;;;7.10;99.90;;;;;;5012732;28;20238;-71
2023/04/21 04:54:55;;;;;;;5.55;4.32;;;7.30;99.90;;;;;;5012318;28;20231;-71
2023/04/21 04:57:22;;;;;;;5.28;4.88;;;7.40;99.90;;;;;;5012883;28;20558;-70
2023/04/21 04:59:49;;;;;;;8.35;5.97;;;7.50;99.90;;;;;;5013635;28;20233;-70
2023/04/21 05:02:15;;;;;;;4.03;3.70;;;7.50;99.90;;;;;;5012547;28;20214;-71
2023/04/21 05:04:42;;;;;;;4.72;4.35;;;7.60;99.90;;;;;;5012820;28;20231;-69
2023/04/21 05:07:09;;;;;;;4.35;4.05;;;7.70;99.90;;;;;;5012848;28;20232;-69
2023/04/21 05:09:37;;;;;;;5.35;4.95;;;7.70;99.90;;;;;;5012607;28;20217;-69
2023/04/21 05:12:04;;;;;;;7.63;4.38;;;7.80;99.90;;;;;;5012383;28;20703;-69
2023/04/21 05:14:31;;;;;;;10.57;3.95;;;7.80;99.90;;;;;;5011642;28;20207;-69
2023/04/21 05:16:58;;;;;;;9.70;6.20;;;7.80;99.90;;;;;;5012081;28;20219;-70
2023/04/21 05:19:25;;;;;;;4.57;4.18;;;7.90;99.90;;;;;;5012249;28;20222;-69
2023/04/21 05:21:52;;;;;;;7.68;3.53;;;7.90;99.90;;;;;;5012433;28;20207;-69
2023/04/21 05:24:22;;;;;;;7.20;6.20;;;8.00;99.90;;;;;;5012017;28;20209;-71
2023/04/21 05:26:50;;;;;;;3.72;3.20;;;8.10;99.90;;;;;;5012355;28;20210;-71
2023/04/21 05:29:16;;;;;;;3.78;3.55;;;8.20;99.90;;;;;;5011400;28;20676;-70
2023/04/21 05:31:43;;;;;;;10.80;5.35;;;8.20;99.90;;;;;;5011290;28;20231;-71
2023/04/21 05:34:10;;;;;;;5.22;4.75;;;8.30;99.90;;;;;;5011572;28;20233;-71
2023/04/21 05:36:36;;;;;;;10.10;5.55;;;8.40;99.90;;;;;;5011989;28;20235;-71
2023/04/21 05:39:03;;;;;;;8.63;5.35;;;8.50;99.90;;;;;;5012465;28;20668;-71
2023/04/21 05:41:30;;;;;;;4.22;3.83;;;8.60;99.90;;;;;;5012548;28;20218;-69
2023/04/21 05:43:58;;;;;;;5.35;4.95;;;8.60;99.90;;;;;;5011928;28;20207;-70
2023/04/21 05:46:25;;;;;;;7.43;5.53;;;8.70;99.90;;;;;;5012740;28;20226;-71
2023/04/21 05:48:52;;;;;;;5.10;4.70;;;8.70;99.90;;;;;;5012331;28;20211;-70
2023/04/21 05:51:19;;;;;;;6.35;4.03;;;8.80;99.90;;;;;;5012004;28;20699;-70
2023/04/21 05:53:46;;;;;;;6.50;5.38;;;8.80;99.90;;;;;;5012403;28;20207;-70
2023/04/21 05:56:13;;;;;;;4.18;3.85;;;8.90;99.90;;;;;;5020932;28;20231;-72
2023/04/21 05:58:40;;;;;;;4.88;4.47;;;9.00;99.90;;;;;;5021576;28;20237;-71
2023/04/21 06:01:08;;;;;;;6.55;4.82;;;9.20;99.90;;;;;;5021598;28;20203;-69
2023/04/21 06:03:35;;;;;;;7.65;4.55;;;9.40;99.90;;;;;;5021032;28;20203;-71
2023/04/21 06:06:03;;;;;;;5.60;5.20;;;9.60;99.90;;;;;;5021932;28;20234;-69
2023/04/21 06:08:30;;;;;;;9.13;4.93;;;9.80;99.90;;;;;;5021154;28;20329;-70
2023/04/21 06:10:56;;;;;;;4.72;3.83;;;10.20;99.90;;;;;;5020632;28;20529;-69
2023/04/21 06:13:23;;;;;;;4.03;3.83;;;10.60;99.90;;;;;;5018642;28;20683;-71
2023/04/21 06:15:50;;;;;;;6.57;5.73;;;11.20;99.90;;;;;;5018014;28;20993;-69
2023/04/21 06:18:18;;;;;;;4.60;4.20;;;11.50;99.90;;;;;;5017149;28;20497;-71
2023/04/21 06:20:50;;;;;;;4.90;4.40;;;11.90;99.90;;;;;;5011519;28;20992;-70
2023/04/21 06:23:17;;;;;;;4.80;4.60;;;12.30;99.90;;;;;;5010704;28;20461;-72
2023/04/21 06:25:44;;;;;;;4.17;3.80;;;12.80;99.90;;;;;;5010959;28;20493;-71
2023/04/21 06:28:11;;;;;;;5.87;3.57;;;13.30;99.90;;;;;;5011068;28;20458;-69
2023/04/21 06:30:37;;;;;;;4.23;3.93;;;13.70;99.90;;;;;;5011356;28;20474;-70
2023/04/21 06:33:05;;;;;;;3.97;3.73;;;14.10;99.90;;;;;;5007546;28;20495;-69
2023/04/21 06:35:33;;;;;;;3.10;2.80;;;14.40;99.90;;;;;;5009440;28;20478;-70
2023/04/21 06:38:00;;;;;;;4.63;4.33;;;14.70;99.90;;;;;;5010998;28;20469;-70
2023/04/21 06:40:27;;;;;;;4.30;4.10;;;14.80;99.90;;;;;;5011150;28;20799;-70
2023/04/21 06:42:53;;;;;;;3.70;3.50;;;14.80;99.90;;;;;;5009836;28;20462;-72
2023/04/21 06:45:20;;;;;;;4.30;4.00;;;14.90;99.90;;;;;;5010435;28;20482;-69
2023/04/21 06:47:47;;;;;;;5.07;3.57;;;14.90;99.90;;;;;;5010298;28;20951;-69
2023/04/21 06:50:14;;;;;;;3.90;3.70;;;14.90;99.90;;;;;;5011110;28;20457;-70
2023/04/21 06:52:42;;;;;;;4.70;4.40;;;14.90;99.90;;;;;;5010506;28;20612;-68
2023/04/21 06:55:09;;;;;;;5.13;4.73;;;14.70;99.90;;;;;;5010196;28;20486;-71
2023/04/21 06:57:36;;;;;;;17.43;4.90;;;14.60;99.90;;;;;;5010486;28;20461;-70
2023/04/21 07:00:04;;;;;;;4.70;4.33;;;14.40;99.90;;;;;;5011272;28;20576;-71
2023/04/21 07:02:31;;;;;;;3.50;3.40;;;14.20;99.90;;;;;;5010225;28;20461;-70
2023/04/21 07:04:57;;;;;;;4.17;3.83;;;13.80;99.90;;;;;;5010354;28;20492;-70
2023/04/21 07:07:24;;;;;;;5.03;4.63;;;13.80;99.90;;;;;;5010583;28;20844;-70
2023/04/21 07:09:52;;;;;;;3.70;3.53;;;13.70;99.90;;;;;;5010792;28;20462;-70
2023/04/21 07:12:19;;;;;;;3.70;3.40;;;13.40;99.90;;;;;;5010627;28;20490;-70
2023/04/21 07:14:46;;;;;;;6.83;5.80;;;13.20;99.90;;;;;;5009857;28;20505;-69
2023/04/21 07:17:12;;;;;;;5.17;4.77;;;13.00;99.90;;;;;;5010231;28;20458;-70
2023/04/21 07:19:39;;;;;;;5.40;4.90;;;12.90;99.90;;;;;;5010432;28;20481;-71
2023/04/21 07:22:06;;;;;;;8.17;5.47;;;12.90;99.90;;;;;;5010596;28;20466;-68
2023/04/21 07:24:34;;;;;;;5.50;4.40;;;12.80;99.90;;;;;;5010024;28;20959;-70
2023/04/21 07:27:02;;;;;;;4.80;4.30;;;12.90;99.90;;;;;;5010697;28;20575;-69
2023/04/21 07:29:29;;;;;;;5.40;4.93;;;12.90;99.90;;;;;;5027936;28;20472;-69
2023/04/21 07:31:57;;;;;;;5.73;3.80;;;13.00;99.90;;;;;;5028445;28;20548;-70
2023/04/21 07:34:24;;;;;;;5.07;4.67;;;13.00;99.90;;;;;;5023503;28;20553;-71
2023/04/21 07:36:51;;;;;;;3.90;3.60;;;13.00;99.90;;;;;;5025990;28;20458;-69
2023/04/21 07:39:18;;;;;;;3.20;2.93;;;13.10;99.90;;;;;;5010632;28;20459;-68
2023/04/21 07:41:45;;;;;;;4.07;3.77;;;13.10;99.90;;;;;;5010825;28;20836;-69
2023/04/21 07:44:13;;;;;;;4.63;4.37;;;13.10;99.90;;;;;;5009487;28;20461;-70
2023/04/21 07:46:40;;;;;;;4.40;4.00;;;13.20;99.90;;;;;;5010092;28;20496;-70
2023/04/21 07:49:06;;;;;;;5.00;4.70;;;13.20;99.90;;;;;;5010161;28;20671;-70
2023/04/21 07:51:33;;;;;;;9.00;4.07;;;13.20;99.90;;;;;;5010535;28;20473;-70
2023/04/21 07:54:00;;;;;;;6.77;4.10;;;13.20;99.90;;;;;;5012110;28;20520;-69
2023/04/21 07:56:27;;;;;;;9.03;4.60;;;13.20;99.90;;;;;;5014132;28;20489;-70
2023/04/21 07:58:53;;;;;;;5.33;4.90;;;13.20;99.90;;;;;;5013676;28;20461;-69
2023/04/21 08:01:22;;;;;;;5.10;4.70;;;13.30;99.90;;;;;;5013126;28;20563;-70
2023/04/21 08:03:49;;;;;;;3.93;3.60;;;13.30;99.90;;;;;;5013449;28;20457;-70
2023/04/21 08:06:16;;;;;;;5.13;4.63;;;13.30;99.90;;;;;;5013736;28;20879;-71
2023/04/21 08:08:42;;;;;;;6.40;5.00;;;13.40;99.90;;;;;;5013916;28;20970;-70
2023/04/21 08:11:09;;;;;;;7.23;4.37;;;13.40;99.90;;;;;;5013509;28;20964;-69
2023/04/21 08:13:36;;;;;;;5.17;4.20;;;13.50;99.90;;;;;;5012841;28;20540;-70
2023/04/21 08:16:03;;;;;;;5.33;4.83;;;13.50;99.90;;;;;;5012979;28;20494;-68
2023/04/21 08:18:31;;;;;;;4.67;4.47;;;13.60;99.90;;;;;;5013762;28;20473;-69
2023/04/21 08:20:58;;;;;;;6.20;4.80;;;13.70;99.90;;;;;;5013816;28;20466;-69
2023/04/21 08:23:24;;;;;;;4.00;3.70;;;13.70;99.90;;;;;;5013110;28;20465;-71
2023/04/21 08:25:51;;;;;;;4.93;4.53;;;13.80;99.90;;;;;;5013810;28;20482;-69
2023/04/21 08:28:18;;;;;;;5.33;4.97;;;13.90;99.90;;;;;;5013282;28;20488;-68
2023/04/21 08:30:45;;;;;;;4.53;4.17;;;14.00;99.90;;;;;;5013172;28;20488;-70
2023/04/21 08:33:12;;;;;;;4.60;4.23;;;14.10;99.90;;;;;;5012619;28;20496;-69
2023/04/21 08:35:41;;;;;;;8.37;4.27;;;14.10;99.90;;;;;;5004889;28;20528;-69
2023/04/21 08:38:08;;;;;;;5.70;4.80;;;14.20;99.90;;;;;;5013323;28;20512;-69
2023/04/21 08:40:37;;;;;;;6.73;4.87;;;14.20;99.90;;;;;;5013571;28;20528;-70
2023/04/21 08:43:05;;;;;;;5.50;4.10;;;14.30;99.90;;;;;;5012482;28;20512;-69
2023/04/21 08:45:32;;;;;;;4.20;3.90;;;14.20;99.90;;;;;;5013034;28;20493;-69
2023/04/21 08:48:00;;;;;;;5.47;5.07;;;14.30;99.90;;;;;;5012818;28;20466;-70
2023/04/21 08:50:29;;;;;;;5.53;5.03;;;14.40;99.90;;;;;;5014560;28;20546;-69
2023/04/21 08:52:58;;;;;;;5.57;4.97;;;14.40;99.90;;;;;;5014992;28;20815;-69
2023/04/21 08:55:26;;;;;;;6.10;4.97;;;14.50;99.90;;;;;;5015147;28;20481;-69
2023/04/21 08:57:53;;;;;;;5.27;4.77;;;14.60;99.90;;;;;;5014724;28;20552;-70
2023/04/21 09:00:20;;;;;;;6.07;5.20;;;14.60;99.90;;;;;;5013636;28;20462;-69
2023/04/21 09:02:55;;;;;;;6.10;5.50;;;14.60;99.90;;;;;;5014556;28;20477;-68
2023/04/21 09:05:24;;;;;;;5.53;4.60;;;14.70;99.90;;;;;;5011809;28;20539;-68
2023/04/21 09:07:51;;;;;;;5.80;4.80;;;14.80;99.90;;;;;;5012769;28;20494;-69
2023/04/21 09:10:23;;;;;;;7.13;5.67;;;14.90;99.90;;;;;;5013138;28;20472;-71
2023/04/21 09:12:51;;;;;;;14.93;5.27;;;15.00;99.90;;;;;;5012320;28;20486;-68
2023/04/21 09:15:20;;;;;;;4.40;4.07;;;15.10;99.90;;;;;;5011983;28;20494;-70
2023/04/21 09:17:47;;;;;;;5.70;4.67;;;15.20;99.90;;;;;;5012433;28;20473;-70
2023/04/21 09:20:15;;;;;;;7.70;4.43;;;15.30;99.90;;;;;;5012866;28;20830;-68
2023/04/21 09:22:42;;;;;;;5.50;5.00;;;15.30;99.90;;;;;;5012131;28;20462;-71
2023/04/21 09:25:09;;;;;;;5.57;3.70;;;15.40;99.90;;;;;;5012123;28;20819;-69
2023/04/21 09:27:38;;;;;;;4.20;4.00;;;15.50;99.90;;;;;;5012159;28;20466;-69
2023/04/21 09:30:06;;;;;;;5.30;4.50;;;15.60;99.90;;;;;;5012927;28;20466;-70
2023/04/21 09:32:36;;;;;;;5.43;3.97;;;15.70;99.90;;;;;;5011694;28;20955;-70
2023/04/21 09:35:03;;;;;;;3.67;3.37;;;15.80;99.90;;;;;;5011861;28;20505;-68
2023/04/21 09:37:33;;;;;;;5.87;4.20;;;15.90;99.90;;;;;;5011911;28;20466;-68
2023/04/21 09:40:00;;;;;;;4.43;4.03;;;16.00;99.90;;;;;;5012587;28;20466;-70
2023/04/21 09:42:29;;;;;;;4.63;4.23;;;16.10;99.90;;;;;;5012231;28;20473;-70
2023/04/21 09:44:57;;;;;;;4.40;4.00;;;16.20;99.90;;;;;;5011454;28;20488;-69
2023/04/21 09:47:28;;;;;;;13.63;5.10;;;16.20;99.90;;;;;;5011581;28;20517;-69
2023/04/21 09:49:55;;;;;;;3.27;2.93;;;16.20;99.90;;;;;;5011959;28;20827;-70
2023/04/21 09:52:24;;;;;;;6.20;4.40;;;16.30;99.90;;;;;;5011950;28;20458;-68
2023/04/21 09:54:57;;;;;;;5.00;4.60;;;16.30;99.90;;;;;;5011578;28;20874;-68
2023/04/21 09:57:26;;;;;;;4.60;4.27;;;16.40;99.90;;;;;;5012011;28;20484;-69
2023/04/21 09:59:59;;;;;;;4.60;4.20;;;16.50;99.90;;;;;;5011388;28;20494;-69
2023/04/21 10:02:30;;;;;;;5.80;4.03;;;16.50;99.90;;;;;;5011299;28;20485;-69
2023/04/21 10:04:57;;;;;;;5.47;4.47;;;16.60;99.90;;;;;;5011156;28;20998;-69
2023/04/21 10:07:24;;;;;;;5.27;5.00;;;16.70;99.90;;;;;;5012161;28;20816;-68
2023/04/21 10:09:56;;;;;;;5.77;5.23;;;16.70;99.90;;;;;;5011714;28;20496;-68
2023/04/21 10:12:24;;;;;;;6.00;3.73;;;16.80;99.90;;;;;;5011466;28;20468;-68
2023/04/21 10:14:52;;;;;;;4.70;4.30;;;16.90;99.90;;;;;;5010836;28;20500;-69
2023/04/21 10:17:23;;;;;;;5.00;4.53;;;17.00;99.90;;;;;;5033344;23;20493;-71
2023/04/21 10:19:51;;;;;;;9.77;4.37;;;17.00;99.90;;;;;;5010768;28;20465;-71
2023/04/21 10:22:28;;;;;;;3.60;3.40;;;17.00;99.90;;;;;;5010796;28;20465;-71
2023/04/21 10:24:55;;;;;;;4.70;4.23;;;17.00;99.90;;;;;;5010409;28;20461;-71
2023/04/21 10:27:32;;;;;;;4.40;4.10;;;17.10;99.90;;;;;;5010577;28;20484;-71
2023/04/21 10:29:59;;;;;;;4.77;4.37;;;17.20;99.90;;;;;;5010995;28;20465;-72
2023/04/21 10:32:40;;;;;;;3.73;3.53;;;17.30;99.90;;;;;;5010263;28;20462;-71
2023/04/21 10:35:09;;;;;;;4.20;3.63;;;17.40;99.90;;;;;;5009960;28;20486;-72
2023/04/21 10:37:36;;;;;;;4.80;4.40;;;17.50;99.90;;;;;;5010230;28;20493;-72
2023/04/21 10:40:08;;;;;;;4.27;3.53;;;17.70;99.90;;;;;;5010768;28;20458;-71
2023/04/21 10:42:36;;;;;;;4.40;4.10;;;17.70;99.90;;;;;;5010765;28;20462;-70
2023/04/21 10:45:11;;;;;;;4.67;4.23;;;17.80;99.90;;;;;;5010374;28;20876;-72
2023/04/21 10:47:47;;;;;;;4.70;4.40;;;17.90;99.90;;;;;;5010099;28;20481;-70
2023/04/21 10:50:17;;;;;;;7.30;4.23;;;18.00;99.90;;;;;;5010829;28;20472;-70
2023/04/21 10:52:44;;;;;;;4.70;4.30;;;18.00;99.90;;;;;;5010551;28;20473;-70
2023/04/21 10:55:14;;;;;;;3.97;3.70;;;18.00;99.90;;;;;;5010221;28;20548;-70
2023/04/21 10:57:44;;;;;;;3.60;3.50;;;18.10;99.90;;;;;;5010236;28;20515;-70
2023/04/21 11:00:11;;;;;;;3.53;3.27;;;18.20;99.90;;;;;;5010856;28;20473;-70
2023/04/21 11:02:39;;;;;;;4.50;4.20;;;18.30;99.90;;;;;;5010252;28;20802;-70
2023/04/21 11:05:09;;;;;;;3.57;3.47;;;18.50;99.90;;;;;;5010587;28;20458;-70
2023/04/21 11:07:36;;;;;;;6.43;5.10;;;18.50;99.90;;;;;;5010729;28;20485;-71
2023/04/21 11:10:05;;;;;;;3.70;3.50;;;18.50;99.90;;;;;;5012180;28;20474;-71
2023/04/21 11:12:33;;;;;;;2.90;2.70;;;18.70;99.90;;;;;;5011481;28;20466;-71
2023/04/21 11:15:02;;;;;;;4.87;4.37;;;18.80;99.90;;;;;;5010293;28;20485;-71
2023/04/21 11:17:29;;;;;;;3.67;3.20;;;18.90;99.90;;;;;;5010112;28;20505;-71
2023/04/21 11:19:56;;;;;;;4.60;3.63;;;19.10;99.90;;;;;;5011231;28;20469;-72
2023/04/21 11:22:26;;;;;;;3.07;2.97;;;19.10;99.90;;;;;;5012461;28;20800;-71
2023/04/21 11:24:54;;;;;;;4.10;3.80;;;19.20;99.90;;;;;;5011804;28;20558;-70
2023/04/21 11:27:21;;;;;;;4.20;3.90;;;19.20;99.40;;;;;;5011623;28;20493;-70
2023/04/21 11:29:49;;;;;;;3.23;3.10;;;19.30;98.30;;;;;;5014100;28;20465;-72
2023/04/21 11:32:16;;;;;;;3.10;2.90;;;19.20;98.40;;;;;;5014683;28;20556;-70
2023/04/21 11:34:43;;;;;;;3.77;3.57;;;19.40;98.30;;;;;;5013893;28;20486;-70
2023/04/21 11:37:15;;;;;;;4.27;3.97;;;19.40;98.10;;;;;;5014281;28;20509;-70
2023/04/21 11:39:43;;;;;;;6.30;3.47;;;19.60;97.80;;;;;;5014527;28;20951;-70
2023/04/21 11:42:10;;;;;;;3.00;2.90;;;19.70;97.20;;;;;;5014403;28;20565;-70
2023/04/21 11:44:39;;;;;;;2.97;2.77;;;19.70;96.20;;;;;;5013339;28;20553;-70
2023/04/21 11:47:16;;;;;;;3.33;3.07;;;19.70;96.20;;;;;;5013882;28;20572;-71
2023/04/21 11:49:47;;;;;;;3.33;3.13;;;19.70;95.90;;;;;;5014291;28;20468;-72
2023/04/21 11:52:24;;;;;;;3.63;3.43;;;19.80;95.20;;;;;;5014460;28;20462;-70
2023/04/21 11:54:57;;;;;;;4.10;3.70;;;19.80;94.60;;;;;;5013475;28;20544;-71
2023/04/21 11:57:25;;;;;;;3.27;2.90;;;20.00;93.70;;;;;;5013678;28;20493;-71
2023/04/21 11:59:52;;;;;;;2.77;2.70;;;20.10;93.60;;;;;;5013550;28;20465;-71
2023/04/21 12:02:24;;;;;;;2.40;2.30;;;20.20;92.80;;;;;;5013792;28;20516;-70
2023/04/21 12:04:59;;;;;;;4.20;4.03;;;20.20;92.20;;;;;;5013480;28;20466;-71
2023/04/21 12:07:26;;;;;;;6.07;3.23;;;20.20;92.50;;;;;;5013511;28;20568;-71
2023/04/21 12:09:53;;;;;;;4.63;4.23;;;20.00;92.60;;;;;;5014183;28;20536;-71
2023/04/21 12:12:22;;;;;;;2.97;2.80;;;20.00;92.10;;;;;;5014257;28;20809;-70
2023/04/21 12:14:50;;;;;;;2.23;2.13;;;20.00;92.00;;;;;;5012879;28;20643;-71
2023/04/21 12:17:17;;;;;;;2.73;2.63;;;20.00;90.70;;;;;;5013108;28;20552;-70
2023/04/21 12:19:44;;;;;;;4.10;3.80;;;20.10;90.90;;;;;;5013606;28;20947;-71
2023/04/21 12:22:12;;;;;;;3.47;3.27;;;20.30;90.50;;;;;;5013506;28;20472;-70
2023/04/21 12:24:39;;;;;;;3.47;3.23;;;20.30;90.10;;;;;;5012986;28;20458;-70
2023/04/21 12:27:07;;;;;;;3.10;2.90;;;20.40;89.90;;;;;;5013794;28;20488;-71
2023/04/21 12:29:36;;;;;;;3.70;3.50;;;20.40;90.10;;;;;;5013204;28;20462;-71
2023/04/21 12:32:03;;;;;;;4.43;4.10;;;20.40;89.30;;;;;;5012770;28;20466;-70
2023/04/21 12:34:30;;;;;;;6.80;2.80;;;20.50;88.90;;;;;;5012708;28;20512;-70
2023/04/21 12:36:56;;;;;;;3.80;3.57;;;20.50;88.10;;;;;;5013248;28;20719;-70
2023/04/21 12:39:23;;;;;;;2.97;2.77;;;20.40;88.60;;;;;;5013316;28;20461;-70
2023/04/21 12:41:51;;;;;;;2.83;2.73;;;20.40;87.90;;;;;;5013199;28;20470;-70
2023/04/21 12:44:17;;;;;;;3.40;3.23;;;20.50;89.30;;;;;;5012294;28;20458;-70
2023/04/21 12:46:47;;;;;;;3.97;3.50;;;20.50;86.50;;;;;;5012722;28;20501;-70
2023/04/21 12:49:15;;;;;;;2.67;2.57;;;20.40;87.40;;;;;;5013120;28;20462;-72
2023/04/21 12:51:42;;;;;;;3.20;3.00;;;20.40;87.70;;;;;;5013781;28;20494;-70
2023/04/21 12:54:08;;;;;;;4.27;2.97;;;20.40;86.40;;;;;;5012441;28;20833;-70
2023/04/21 12:56:35;;;;;;;3.70;3.50;;;20.40;87.70;;;;;;5012664;28;20483;-72
2023/04/21 12:59:02;;;;;;;5.77;3.83;;;20.50;87.60;;;;;;5012313;28;20822;-71
2023/04/21 13:01:29;;;;;;;4.47;4.10;;;20.50;86.60;;;;;;5011942;28;20466;-70
2023/04/21 13:03:58;;;;;;;2.67;2.57;;;20.50;87.50;;;;;;5012150;28;20469;-70
2023/04/21 13:06:25;;;;;;;3.77;3.63;;;20.50;87.00;;;;;;5013042;28;20478;-70
2023/04/21 13:08:51;;;;;;;2.70;2.60;;;20.50;87.10;;;;;;5013613;28;20462;-70
2023/04/21 13:11:18;;;;;;;3.70;3.50;;;20.50;86.90;;;;;;5012776;28;20493;-70
2023/04/21 13:13:45;;;;;;;3.67;3.37;;;20.50;87.90;;;;;;5013283;28;20469;-70
2023/04/21 13:16:11;;;;;;;2.10;2.00;;;20.50;84.80;;;;;;5011738;28;20504;-69
2023/04/21 13:18:38;;;;;;;3.23;3.13;;;20.60;84.60;;;;;;5013009;28;20466;-70
2023/04/21 13:21:06;;;;;;;6.30;3.90;;;20.60;85.40;;;;;;5012711;28;20776;-71
2023/04/21 13:23:33;;;;;;;2.97;2.87;;;20.50;86.10;;;;;;5012103;28;20959;-70
2023/04/21 13:26:00;;;;;;;2.57;2.47;;;20.40;86.70;;;;;;5012207;28;20481;-70
2023/04/21 13:28:27;;;;;;;2.93;2.73;;;20.40;87.40;;;;;;5012244;28;20648;-71
2023/04/21 13:30:54;;;;;;;4.10;3.90;;;20.50;89.70;;;;;;5012953;28;20565;-70
2023/04/21 13:33:21;;;;;;;2.37;2.37;;;20.40;89.40;;;;;;5011655;28;20477;-70
2023/04/21 13:35:47;;;;;;;4.07;3.87;;;20.40;89.00;;;;;;5011998;28;20481;-71
2023/04/21 13:38:15;;;;;;;3.77;3.50;;;20.40;88.00;;;;;;5012028;28;20469;-70
2023/04/21 13:40:42;;;;;;;3.27;3.07;;;20.30;88.40;;;;;;5012208;28;20465;-69
2023/04/21 13:43:09;;;;;;;3.70;3.50;;;20.30;87.90;;;;;;5010900;28;20934;-70
2023/04/21 13:45:36;;;;;;;3.80;3.47;;;20.40;86.00;;;;;;5011529;28;20462;-69
2023/04/21 13:48:03;;;;;;;2.90;2.70;;;20.50;84.90;;;;;;5011165;28;20977;-69
2023/04/21 13:50:30;;;;;;;4.17;2.97;;;20.50;83.90;;;;;;5011819;28;20458;-71
2023/04/21 13:52:57;;;;;;;4.03;3.50;;;20.60;82.40;;;;;;5011364;28;20557;-70
2023/04/21 13:55:25;;;;;;;3.00;2.90;;;20.70;82.90;;;;;;5011288;28;21009;-70
2023/04/21 13:57:52;;;;;;;3.30;3.10;;;20.60;80.40;;;;;;5011292;28;20472;-69
2023/04/21 14:00:19;;;;;;;2.90;2.80;;;20.60;79.60;;;;;;5011773;28;20466;-71
2023/04/21 14:02:46;;;;;;;3.17;3.07;;;20.50;81.20;;;;;;5010980;28;20473;-70
2023/04/21 14:05:12;;;;;;;1.60;1.57;;;20.60;81.40;;;;;;5011025;28;20481;-71
2023/04/21 14:07:39;;;;;;;2.70;2.60;;;20.70;78.00;;;;;;5011786;28;20976;-70
2023/04/21 14:10:07;;;;;;;2.87;2.77;;;20.70;76.80;;;;;;5011454;28;20820;-70
2023/04/21 14:12:35;;;;;;;3.50;3.30;;;20.70;73.90;;;;;;5010744;28;20465;-70
2023/04/21 14:15:02;;;;;;;3.00;2.90;;;20.70;74.10;;;;;;5010934;28;20496;-70
2023/04/21 14:17:29;;;;;;;2.30;2.20;;;20.80;74.50;;;;;;5010782;28;20616;-70
2023/04/21 14:19:56;;;;;;;3.77;3.57;;;20.80;73.50;;;;;;5011223;28;20520;-70
2023/04/21 14:22:23;;;;;;;2.87;2.77;;;20.80;74.00;;;;;;5011184;28;20466;-69
2023/04/21 14:24:50;;;;;;;2.70;2.50;;;20.70;74.20;;;;;;5010356;28;20544;-71
2023/04/21 14:27:16;;;;;;;4.03;3.67;;;20.60;73.90;;;;;;5011056;28;20488;-71
2023/04/21 14:29:44;;;;;;;2.73;2.63;;;20.60;75.10;;;;;;5010848;28;20462;-70
2023/04/21 14:32:11;;;;;;;3.77;3.47;;;20.60;74.80;;;;;;5010509;28;20919;-70
2023/04/21 14:34:38;;;;;;;3.37;3.07;;;20.60;73.20;;;;;;5005975;28;20490;-70
2023/04/21 14:37:04;;;;;;;3.23;2.83;;;20.60;73.60;;;;;;5010569;28;20478;-71
2023/04/21 14:39:32;;;;;;;2.83;2.73;;;20.60;72.40;;;;;;5010716;28;20465;-70
2023/04/21 14:42:00;;;;;;;2.70;2.53;;;20.70;73.40;;;;;;5010636;28;20462;-70
2023/04/21 14:44:27;;;;;;;2.50;2.40;;;20.70;73.30;;;;;;5010069;28;20458;-71
2023/04/21 14:46:55;;;;;;;1.83;1.73;;;20.60;72.10;;;;;;5010107;28;20947;-71
2023/04/21 14:49:22;;;;;;;3.73;2.10;;;20.60;73.20;;;;;;5010742;28;20561;-70
2023/04/21 14:51:50;;;;;;;3.27;3.07;;;20.60;73.80;;;;;;5010563;28;20588;-70
2023/04/21 14:54:17;;;;;;;1.90;1.80;;;20.50;74.50;;;;;;5010450;28;20583;-70
2023/04/21 14:56:44;;;;;;;2.00;2.00;;;20.50;75.10;;;;;;5010847;28;20513;-70
2023/04/21 14:59:10;;;;;;;2.30;2.30;;;20.50;73.60;;;;;;5010319;28;20461;-71
2023/04/21 15:01:37;;;;;;;3.27;3.07;;;20.50;73.70;;;;;;5010228;28;20477;-70
2023/04/21 15:04:05;;;;;;;3.40;3.20;;;20.50;74.70;;;;;;5012660;28;20469;-70
2023/04/21 15:06:32;;;;;;;2.60;2.50;;;20.50;75.10;;;;;;5014331;28;20826;-70
2023/04/21 15:08:59;;;;;;;2.97;2.77;;;20.50;72.60;;;;;;5014688;28;20466;-71
2023/04/21 15:11:25;;;;;;;2.70;2.70;;;20.40;72.40;;;;;;5014805;28;20465;-71
2023/04/21 15:13:52;;;;;;;1.67;1.63;;;20.40;74.40;;;;;;5013717;28;20806;-70
2023/04/21 15:16:19;;;;;;;2.30;2.10;;;20.50;73.70;;;;;;5013745;28;20494;-70
2023/04/21 15:18:46;;;;;;;3.13;2.93;;;20.50;74.60;;;;;;5014686;28;20555;-70
2023/04/21 15:21:14;;;;;;;5.27;3.23;;;20.50;74.60;;;;;;5014082;28;20619;-70
2023/04/21 15:23:40;;;;;;;8.20;3.00;;;20.40;75.20;;;;;;5013929;28;20477;-70
2023/04/21 15:26:07;;;;;;;3.50;3.30;;;20.50;75.50;;;;;;5014112;28;20481;-70
2023/04/21 15:28:34;;;;;;;3.50;3.30;;;20.40;73.50;;;;;;5014011;28;20473;-70
2023/04/21 15:31:01;;;;;;;3.83;3.63;;;20.40;73.80;;;;;;5013663;28;20544;-69
2023/04/21 15:33:28;;;;;;;4.47;4.07;;;20.40;75.10;;;;;;5013392;28;20465;-70
2023/04/21 15:35:55;;;;;;;3.63;3.43;;;20.40;74.80;;;;;;5013704;28;20482;-69
2023/04/21 15:38:23;;;;;;;3.57;3.47;;;20.40;74.90;;;;;;5014010;28;20472;-70
2023/04/21 15:40:49;;;;;;;3.00;2.80;;;20.40;75.80;;;;;;5014246;28;20474;-73
2023/04/21 15:43:16;;;;;;;3.40;3.20;;;20.40;75.30;;;;;;5013215;28;20462;-69
2023/04/21 15:45:43;;;;;;;3.43;3.20;;;20.50;76.00;;;;;;5014227;28;20468;-70
2023/04/21 15:48:11;;;;;;;2.70;2.60;;;20.50;76.80;;;;;;5013876;28;20490;-69
2023/04/21 15:50:38;;;;;;;3.77;3.57;;;20.50;75.50;;;;;;5014032;28;20527;-69
2023/04/21 15:53:05;;;;;;;4.07;3.90;;;20.40;75.60;;;;;;5013784;28;20973;-69
2023/04/21 15:55:33;;;;;;;3.17;3.03;;;20.40;76.30;;;;;;5013825;28;21012;-70
2023/04/21 15:58:00;;;;;;;2.93;2.83;;;20.40;76.40;;;;;;5013230;28;20559;-70
2023/04/21 16:00:28;;;;;;;2.90;2.90;;;20.40;76.40;;;;;;5013923;28;20462;-70
2023/04/21 16:02:55;;;;;;;3.10;2.90;;;20.40;77.10;;;;;;5012892;28;20559;-70
2023/04/21 16:05:22;;;;;;;3.23;3.03;;;20.30;77.20;;;;;;5012991;28;20492;-71
2023/04/21 16:07:48;;;;;;;3.70;3.60;;;20.30;77.10;;;;;;5013135;28;20489;-71
2023/04/21 16:10:15;;;;;;;2.93;2.83;;;20.30;76.60;;;;;;5013477;28;20953;-71
2023/04/21 16:12:45;;;;;;;3.97;3.70;;;20.30;76.40;;;;;;5013102;28;20465;-71
2023/04/21 16:15:13;;;;;;;3.27;3.10;;;20.20;76.50;;;;;;5012262;28;20492;-71
2023/04/21 16:17:39;;;;;;;2.80;2.70;;;20.10;76.20;;;;;;5013229;28;20485;-69
2023/04/21 16:20:07;;;;;;;2.73;2.53;;;20.10;76.80;;;;;;5013545;28;20556;-69
2023/04/21 16:22:34;;;;;;;2.77;2.67;;;20.10;75.90;;;;;;5012546;28;20485;-70
2023/04/21 16:25:01;;;;;;;3.03;2.83;;;20.00;76.20;;;;;;5013274;28;20553;-70
2023/04/21 16:27:28;;;;;;;2.70;2.60;;;20.00;76.30;;;;;;5013380;28;20481;-70
2023/04/21 16:29:56;;;;;;;3.00;2.80;;;19.90;76.50;;;;;;5012902;28;20465;-69
2023/04/21 16:32:22;;;;;;;3.60;3.43;;;19.90;77.10;;;;;;5013061;28;20576;-70
2023/04/21 16:34:49;;;;;;;8.10;2.43;;;19.80;77.30;;;;;;5008201;28;20466;-70
2023/04/21 16:37:16;;;;;;;2.47;2.37;;;19.80;76.40;;;;;;5012947;28;20488;-70
2023/04/21 16:39:43;;;;;;;2.97;2.87;;;19.80;77.00;;;;;;5013562;28;20492;-70
2023/04/21 16:42:09;;;;;;;3.90;3.57;;;19.80;77.60;;;;;;5012858;28;20477;-70
2023/04/21 16:44:36;;;;;;;3.67;3.47;;;19.80;76.00;;;;;;5011886;28;20466;-70
2023/04/21 16:47:04;;;;;;;3.33;3.13;;;19.70;75.50;;;;;;5012368;28;20509;-70
2023/04/21 16:49:31;;;;;;;2.93;2.83;;;19.70;76.40;;;;;;5012812;28;20496;-70